createdAt,value
2018-08-25T00:00:29.127Z,62.26
2018-08-25T00:01:29.353Z,63.13
2018-08-25T00:02:29.582Z,62.93
2018-08-25T00:03:29.813Z,62.84
2018-08-25T00:04:30.047Z,63.16
2018-08-25T00:05:30.278Z,62.59
2018-08-25T00:06:30.503Z,62.87
2018-08-25T00:07:30.739Z,63.26
2018-08-25T00:08:30.975Z,63.35
2018-08-25T00:09:31.202Z,63.73
2018-08-25T00:10:31.431Z,63.73
2018-08-25T00:11:31.666Z,63.92
2018-08-25T00:12:31.890Z,64.02
2018-08-25T00:13:32.126Z,64.18
2018-08-25T00:14:32.369Z,65.14
2018-08-25T00:15:32.578Z,65.52
2018-08-25T00:16:32.807Z,65.91
2018-08-25T00:17:33.035Z,64.47
2018-08-25T00:18:33.270Z,65.33
2018-08-25T00:19:33.499Z,65.42
2018-08-25T00:20:33.728Z,65.71
2018-08-25T00:21:33.955Z,65.11
2018-08-25T00:22:34.188Z,64.85
2018-08-25T00:23:34.423Z,64.85
2018-08-25T00:24:34.649Z,65.33
2018-08-25T00:25:34.884Z,64.72
2018-08-25T00:26:35.110Z,65.20
2018-08-25T00:27:35.339Z,65.78
2018-08-25T00:28:35.572Z,66.25
2018-08-25T00:29:35.800Z,65.68
2018-08-25T00:30:36.028Z,65.62
2018-08-25T00:31:36.257Z,65.91
2018-08-25T00:32:36.490Z,66.19
2018-08-25T00:33:36.714Z,66.09
2018-08-25T00:34:36.943Z,65.81
2018-08-25T00:35:37.172Z,66.00
2018-08-25T00:36:37.402Z,65.81
2018-08-25T00:37:37.631Z,65.81
2018-08-25T00:38:37.874Z,65.14
2018-08-25T00:39:38.092Z,64.85
2018-08-25T00:40:38.319Z,64.85
2018-08-25T00:41:38.548Z,65.14
2018-08-25T00:42:38.778Z,64.95
2018-08-25T00:43:39.013Z,65.14
2018-08-25T00:44:39.233Z,65.71
2018-08-25T00:45:39.467Z,65.62
2018-08-25T00:46:39.702Z,66.29
2018-08-25T00:47:39.930Z,65.71
2018-08-25T00:48:40.201Z,66.09
2018-08-25T00:49:40.385Z,66.19
2018-08-25T00:50:40.615Z,66.96
2018-08-25T00:51:40.847Z,66.77
2018-08-25T00:52:41.063Z,66.77
2018-08-25T00:53:41.293Z,67.25
2018-08-25T00:54:41.519Z,66.86
2018-08-25T00:55:41.751Z,67.25
2018-08-25T00:56:41.981Z,67.25
2018-08-25T00:57:42.209Z,66.58
2018-08-25T00:58:42.427Z,65.81
2018-08-25T00:59:42.655Z,66.06
2018-08-25T01:00:42.885Z,66.93
2018-08-25T01:01:43.113Z,67.88
2018-08-25T01:02:43.345Z,68.27
2018-08-25T01:03:43.572Z,68.07
2018-08-25T01:04:43.794Z,68.07
2018-08-25T01:05:44.023Z,67.98
2018-08-25T01:06:44.251Z,68.07
2018-08-25T01:07:44.479Z,68.17
2018-08-25T01:08:44.708Z,67.50
2018-08-25T01:09:44.934Z,67.21
2018-08-25T01:10:45.162Z,67.31
2018-08-25T01:11:45.389Z,67.11
2018-08-25T01:12:45.622Z,68.36
2018-08-25T01:13:45.851Z,67.79
2018-08-25T01:14:46.087Z,67.50
2018-08-25T01:15:46.318Z,68.17
2018-08-25T01:16:46.540Z,68.27
2018-08-25T01:17:46.770Z,67.72
2018-08-25T01:18:47.001Z,67.82
2018-08-25T01:19:47.226Z,67.82
2018-08-25T01:20:47.454Z,67.54
2018-08-25T01:21:47.684Z,67.91
2018-08-25T01:22:47.904Z,66.86
2018-08-25T01:23:48.129Z,66.96
2018-08-25T01:24:48.362Z,66.67
2018-08-25T01:25:48.591Z,66.77
2018-08-25T01:26:48.819Z,66.77
2018-08-25T01:27:49.067Z,66.64
2018-08-25T01:28:49.279Z,67.11
2018-08-25T01:29:49.505Z,66.58
2018-08-25T01:30:49.735Z,66.86
2018-08-25T01:31:49.963Z,66.83
2018-08-25T01:32:50.192Z,66.93
2018-08-25T01:33:50.423Z,66.74
2018-08-25T01:34:50.656Z,66.86
2018-08-25T01:35:50.891Z,66.64
2018-08-25T01:36:51.113Z,66.93
2018-08-25T01:37:51.353Z,68.17
2018-08-25T01:38:51.580Z,68.07
2018-08-25T01:39:51.800Z,67.98
2018-08-25T01:40:52.032Z,68.65
2018-08-25T01:41:52.260Z,67.60
2018-08-25T01:42:52.491Z,67.50
2018-08-25T01:43:52.719Z,67.31
2018-08-25T01:44:52.945Z,67.69
2018-08-25T01:45:53.175Z,67.98
2018-08-25T01:46:53.400Z,68.55
2018-08-25T01:47:53.627Z,68.46
2018-08-25T01:48:53.857Z,68.17
2018-08-25T01:49:54.084Z,67.98
2018-08-25T01:50:54.314Z,68.07
2018-08-25T01:51:54.552Z,68.07
2018-08-25T01:52:54.770Z,67.69
2018-08-25T01:53:54.993Z,67.79
2018-08-25T01:54:55.214Z,67.88
2018-08-25T01:55:55.441Z,68.17
2018-08-25T01:56:55.666Z,67.41
2018-08-25T01:57:55.898Z,67.60
2018-08-25T01:58:56.128Z,67.31
2018-08-25T01:59:56.351Z,67.79
2018-08-25T02:00:56.586Z,67.50
2018-08-25T02:01:56.811Z,67.69
2018-08-25T02:02:57.046Z,66.93
2018-08-25T02:03:57.266Z,67.31
2018-08-25T02:04:57.505Z,67.21
2018-08-25T02:05:57.720Z,66.35
2018-08-25T02:06:57.953Z,66.25
2018-08-25T02:07:58.180Z,66.54
2018-08-25T02:08:58.405Z,66.25
2018-08-25T02:09:58.634Z,65.88
2018-08-25T02:10:58.863Z,65.78
2018-08-25T02:11:59.092Z,65.68
2018-08-25T02:12:59.318Z,65.78
2018-08-25T02:13:59.544Z,65.78
2018-08-25T02:14:59.774Z,65.88
2018-08-25T02:16:00.009Z,65.88
2018-08-25T02:17:00.235Z,66.25
2018-08-25T02:18:00.463Z,65.68
2018-08-25T02:19:00.686Z,65.68
2018-08-25T02:20:00.912Z,66.35
2018-08-25T02:21:01.143Z,66.93
2018-08-25T02:22:01.368Z,66.74
2018-08-25T02:23:01.616Z,66.74
2018-08-25T02:24:01.836Z,67.31
2018-08-25T02:25:02.059Z,67.79
2018-08-25T02:26:02.293Z,67.50
2018-08-25T02:27:02.512Z,67.60
2018-08-25T02:28:02.743Z,68.27
2018-08-25T02:29:02.971Z,67.88
2018-08-25T02:30:03.196Z,68.65
2018-08-25T02:31:03.423Z,68.46
2018-08-25T02:32:03.651Z,69.03
2018-08-25T02:33:03.886Z,68.80
2018-08-25T02:34:04.107Z,68.74
2018-08-25T02:35:04.340Z,68.80
2018-08-25T02:36:04.578Z,69.38
2018-08-25T02:37:04.810Z,69.57
2018-08-25T02:38:05.130Z,69.29
2018-08-25T02:39:05.249Z,69.48
2018-08-25T02:40:05.479Z,68.80
2018-08-25T02:41:05.707Z,69.23
2018-08-25T02:42:05.934Z,69.19
2018-08-25T02:43:06.159Z,69.09
2018-08-25T02:44:06.389Z,69.19
2018-08-25T02:45:06.621Z,69.38
2018-08-25T02:46:06.858Z,69.00
2018-08-25T02:47:07.081Z,69.38
2018-08-25T02:48:07.305Z,68.90
2018-08-25T02:49:07.537Z,68.80
2018-08-25T02:50:07.762Z,69.09
2018-08-25T02:51:07.988Z,68.80
2018-08-25T02:52:08.215Z,68.90
2018-08-25T02:53:08.443Z,69.67
2018-08-25T02:54:08.673Z,68.42
2018-08-25T02:55:08.908Z,67.47
2018-08-25T02:56:09.127Z,67.85
2018-08-25T02:57:09.363Z,67.08
2018-08-25T02:58:09.581Z,66.32
2018-08-25T02:59:09.808Z,66.80
2018-08-25T03:00:10.034Z,67.08
2018-08-25T03:01:10.273Z,66.03
2018-08-25T03:02:10.492Z,66.41
2018-08-25T03:03:10.715Z,66.03
2018-08-25T03:04:10.952Z,65.84
2018-08-25T03:05:11.173Z,66.03
2018-08-25T03:06:11.403Z,66.03
2018-08-25T03:07:11.632Z,65.68
2018-08-25T03:08:11.863Z,65.84
2018-08-25T03:09:12.089Z,66.03
2018-08-25T03:10:12.309Z,66.22
2018-08-25T03:11:12.551Z,64.92
2018-08-25T03:12:12.776Z,64.82
2018-08-25T03:13:13.008Z,64.92
2018-08-25T03:14:13.237Z,65.49
2018-08-25T03:15:13.459Z,65.78
2018-08-25T03:16:13.690Z,65.68
2018-08-25T03:17:13.916Z,65.88
2018-08-25T03:18:14.157Z,64.92
2018-08-25T03:19:14.389Z,64.92
2018-08-25T03:20:14.612Z,65.20
2018-08-25T03:21:14.836Z,65.97
2018-08-25T03:22:15.064Z,67.02
2018-08-25T03:23:15.295Z,67.21
2018-08-25T03:24:15.515Z,67.85
2018-08-25T03:25:15.749Z,67.69
2018-08-25T03:26:16.007Z,68.65
2018-08-25T03:27:16.209Z,68.62
2018-08-25T03:28:16.430Z,68.33
2018-08-25T03:29:16.649Z,68.33
2018-08-25T03:30:16.887Z,67.94
2018-08-25T03:31:17.112Z,67.76
2018-08-25T03:32:17.346Z,66.99
2018-08-25T03:33:17.565Z,66.80
2018-08-25T03:34:17.793Z,66.80
2018-08-25T03:35:18.021Z,66.32
2018-08-25T03:36:18.251Z,66.25
2018-08-25T03:37:18.477Z,66.06
2018-08-25T03:38:18.708Z,66.06
2018-08-25T03:39:18.935Z,65.68
2018-08-25T03:40:19.163Z,65.88
2018-08-25T03:41:19.395Z,65.88
2018-08-25T03:42:19.620Z,66.22
2018-08-25T03:43:19.849Z,66.89
2018-08-25T03:44:20.076Z,67.27
2018-08-25T03:45:20.306Z,67.31
2018-08-25T03:46:20.532Z,66.99
2018-08-25T03:47:20.763Z,66.41
2018-08-25T03:48:20.990Z,66.80
2018-08-25T03:49:21.213Z,66.83
2018-08-25T03:50:21.445Z,67.02
2018-08-25T03:51:21.670Z,65.97
2018-08-25T03:52:21.894Z,66.35
2018-08-25T03:53:22.123Z,66.06
2018-08-25T03:54:22.352Z,66.16
2018-08-25T03:55:22.639Z,66.35
2018-08-25T03:56:22.808Z,65.88
2018-08-25T03:57:23.038Z,65.78
2018-08-25T03:58:23.258Z,65.88
2018-08-25T03:59:23.494Z,65.65
2018-08-25T04:00:23.714Z,65.17
2018-08-25T04:01:23.982Z,65.97
2018-08-25T04:02:24.172Z,65.84
2018-08-25T04:03:24.402Z,66.25
2018-08-25T04:04:24.640Z,66.16
2018-08-25T04:05:24.857Z,65.88
2018-08-25T04:06:25.083Z,66.06
2018-08-25T04:07:25.319Z,66.22
2018-08-25T04:08:25.549Z,66.35
2018-08-25T04:09:25.774Z,66.03
2018-08-25T04:10:26.012Z,66.16
2018-08-25T04:11:26.230Z,66.45
2018-08-25T04:12:26.471Z,65.97
2018-08-25T04:13:26.689Z,65.55
2018-08-25T04:14:26.917Z,65.97
2018-08-25T04:15:27.149Z,66.13
2018-08-25T04:16:27.381Z,67.27
2018-08-25T04:17:27.606Z,66.89
2018-08-25T04:18:27.836Z,66.80
2018-08-25T04:19:28.067Z,67.11
2018-08-25T04:20:28.294Z,67.21
2018-08-25T04:21:28.522Z,67.31
2018-08-25T04:22:28.750Z,67.41
2018-08-25T04:23:28.980Z,66.54
2018-08-25T04:24:29.208Z,65.88
2018-08-25T04:25:29.442Z,66.25
2018-08-25T04:26:29.670Z,66.45
2018-08-25T04:27:29.902Z,66.16
2018-08-25T04:28:30.127Z,66.16
2018-08-25T04:29:30.355Z,66.06
2018-08-25T04:30:30.589Z,66.16
2018-08-25T04:31:30.813Z,66.25
2018-08-25T04:32:31.041Z,65.78
2018-08-25T04:33:31.290Z,65.88
2018-08-25T04:34:31.491Z,66.25
2018-08-25T04:35:31.728Z,66.35
2018-08-25T04:36:31.953Z,66.93
2018-08-25T04:37:32.183Z,67.11
2018-08-25T04:38:32.414Z,67.21
2018-08-25T04:39:32.640Z,67.21
2018-08-25T04:40:32.870Z,67.21
2018-08-25T04:41:33.099Z,66.93
2018-08-25T04:42:33.331Z,67.88
2018-08-25T04:43:33.553Z,67.50
2018-08-25T04:44:33.787Z,67.85
2018-08-25T04:45:34.018Z,67.50
2018-08-25T04:46:34.241Z,67.50
2018-08-25T04:47:34.473Z,67.02
2018-08-25T04:48:34.694Z,67.50
2018-08-25T04:49:34.924Z,67.88
2018-08-25T04:50:35.160Z,67.88
2018-08-25T04:51:35.394Z,68.27
2018-08-25T04:52:35.621Z,68.27
2018-08-25T04:53:35.846Z,68.94
2018-08-25T04:54:36.067Z,69.13
2018-08-25T04:55:36.298Z,69.13
2018-08-25T04:56:36.531Z,68.74
2018-08-25T04:57:36.759Z,68.84
2018-08-25T04:58:36.988Z,69.23
2018-08-25T04:59:37.215Z,68.84
2018-08-25T05:00:37.438Z,68.11
2018-08-25T05:01:37.673Z,67.54
2018-08-25T05:02:37.903Z,66.86
2018-08-25T05:03:38.134Z,65.81
2018-08-25T05:04:38.373Z,65.33
2018-08-25T05:05:38.590Z,64.47
2018-08-25T05:06:38.820Z,63.54
2018-08-25T05:07:39.174Z,63.54
2018-08-25T05:08:39.279Z,62.59
2018-08-25T05:09:39.509Z,62.77
2018-08-25T05:10:39.739Z,62.52
2018-08-25T05:11:39.963Z,62.81
2018-08-25T05:12:40.184Z,61.69
2018-08-25T05:13:40.415Z,61.78
2018-08-25T05:14:40.634Z,60.75
2018-08-25T05:15:40.863Z,60.66
2018-08-25T05:16:41.103Z,59.51
2018-08-25T05:17:41.324Z,59.16
2018-08-25T05:18:41.549Z,59.16
2018-08-25T05:19:41.775Z,58.00
2018-08-25T05:20:42.009Z,57.75
2018-08-25T05:21:42.235Z,57.07
2018-08-25T05:22:42.466Z,56.21
2018-08-25T05:23:42.702Z,56.01
2018-08-25T05:24:42.923Z,55.76
2018-08-25T05:25:43.152Z,55.18
2018-08-25T05:26:43.386Z,54.96
2018-08-25T05:27:43.615Z,55.73
2018-08-25T05:28:43.842Z,56.01
2018-08-25T05:29:44.080Z,55.82
2018-08-25T05:30:44.303Z,56.27
2018-08-25T05:31:44.537Z,57.04
2018-08-25T05:32:44.770Z,57.23
2018-08-25T05:33:45.002Z,57.14
2018-08-25T05:34:45.231Z,57.50
2018-08-25T05:35:45.453Z,57.78
2018-08-25T05:36:45.696Z,58.26
2018-08-25T05:37:45.927Z,58.64
2018-08-25T05:38:46.168Z,58.67
2018-08-25T05:39:46.390Z,58.55
2018-08-25T05:40:46.614Z,59.03
2018-08-25T05:41:46.840Z,59.12
2018-08-25T05:42:47.080Z,59.70
2018-08-25T05:43:47.317Z,60.57
2018-08-25T05:44:47.547Z,59.51
2018-08-25T05:45:47.780Z,58.96
2018-08-25T05:46:48.010Z,59.25
2018-08-25T05:47:48.238Z,58.89
2018-08-25T05:48:48.469Z,57.26
2018-08-25T05:49:48.703Z,57.00
2018-08-25T05:50:48.928Z,56.55
2018-08-25T05:51:49.160Z,55.88
2018-08-25T05:52:49.389Z,55.68
2018-08-25T05:53:49.620Z,55.88
2018-08-25T05:54:49.852Z,54.91
2018-08-25T05:55:50.083Z,54.91
2018-08-25T05:56:50.313Z,55.11
2018-08-25T05:57:50.545Z,55.33
2018-08-25T05:58:50.777Z,54.27
2018-08-25T05:59:51.012Z,54.00
2018-08-25T06:00:51.241Z,52.85
2018-08-25T06:01:51.474Z,52.69
2018-08-25T06:02:51.707Z,52.40
2018-08-25T06:03:51.935Z,52.87
2018-08-25T06:04:52.165Z,52.59
2018-08-25T06:05:52.410Z,51.75
2018-08-25T06:06:52.637Z,51.56
2018-08-25T06:07:52.854Z,51.39
2018-08-25T06:08:53.088Z,51.00
2018-08-25T06:09:53.321Z,50.26
2018-08-25T06:10:53.550Z,50.06
2018-08-25T06:11:53.790Z,49.39
2018-08-25T06:12:54.016Z,49.12
2018-08-25T06:13:54.248Z,48.64
2018-08-25T06:14:54.486Z,47.89
2018-08-25T06:15:54.710Z,48.18
2018-08-25T06:16:54.945Z,47.43
2018-08-25T06:17:55.168Z,47.24
2018-08-25T06:18:55.401Z,46.95
2018-08-25T06:19:55.637Z,47.41
2018-08-25T06:20:55.866Z,47.29
2018-08-25T06:21:56.099Z,47.77
2018-08-25T06:22:56.332Z,48.06
2018-08-25T06:23:56.570Z,48.81
2018-08-25T06:24:56.807Z,49.10
2018-08-25T06:25:57.033Z,49.87
2018-08-25T06:26:57.269Z,49.58
2018-08-25T06:27:57.501Z,50.16
2018-08-25T06:28:57.732Z,50.64
2018-08-25T06:29:57.972Z,49.87
2018-08-25T06:30:58.195Z,49.51
2018-08-25T06:31:58.424Z,49.22
2018-08-25T06:32:58.663Z,49.12
2018-08-25T06:33:58.894Z,49.32
2018-08-25T06:34:59.123Z,48.47
2018-08-25T06:35:59.370Z,47.80
2018-08-25T06:36:59.587Z,47.91
2018-08-25T06:37:59.865Z,47.45
2018-08-25T06:39:00.054Z,46.95
2018-08-25T06:40:00.288Z,46.95
2018-08-25T06:41:00.516Z,47.53
2018-08-25T06:42:00.756Z,47.05
2018-08-25T06:43:00.983Z,47.31
2018-08-25T06:44:01.217Z,47.99
2018-08-25T06:45:01.449Z,47.87
2018-08-25T06:46:01.684Z,47.87
2018-08-25T06:47:01.917Z,48.93
2018-08-25T06:48:02.149Z,49.51
2018-08-25T06:49:02.381Z,50.54
2018-08-25T06:50:02.612Z,51.00
2018-08-25T06:51:02.844Z,51.00
2018-08-25T06:52:03.075Z,51.20
2018-08-25T06:53:03.317Z,52.16
2018-08-25T06:54:03.555Z,52.35
2018-08-25T06:55:03.785Z,53.03
2018-08-25T06:56:04.021Z,52.16
2018-08-25T06:57:04.249Z,52.91
2018-08-25T06:58:04.476Z,53.09
2018-08-25T06:59:04.705Z,53.48
2018-08-25T07:00:04.944Z,53.84
2018-08-25T07:01:05.175Z,54.90
2018-08-25T07:02:05.406Z,55.00
2018-08-25T07:03:05.642Z,55.48
2018-08-25T07:04:05.870Z,55.96
2018-08-25T07:05:06.107Z,56.35
2018-08-25T07:06:06.396Z,56.35
2018-08-25T07:07:06.581Z,55.65
2018-08-25T07:08:06.816Z,56.03
2018-08-25T07:09:07.048Z,56.41
2018-08-25T07:10:07.286Z,56.03
2018-08-25T07:11:07.514Z,55.77
2018-08-25T07:12:07.748Z,55.77
2018-08-25T07:13:07.985Z,55.87
2018-08-25T07:14:08.206Z,55.96
2018-08-25T07:15:08.441Z,55.38
2018-08-25T07:16:08.672Z,55.19
2018-08-25T07:17:08.906Z,55.38
2018-08-25T07:18:09.139Z,55.96
2018-08-25T07:19:09.373Z,55.00
2018-08-25T07:20:09.600Z,55.67
2018-08-25T07:21:09.830Z,55.19
2018-08-25T07:22:10.056Z,55.00
2018-08-25T07:23:10.280Z,55.48
2018-08-25T07:24:10.519Z,54.90
2018-08-25T07:25:10.755Z,55.22
2018-08-25T07:26:11.009Z,55.19
2018-08-25T07:27:11.229Z,56.05
2018-08-25T07:28:11.463Z,56.15
2018-08-25T07:29:11.700Z,56.35
2018-08-25T07:30:11.931Z,56.05
2018-08-25T07:31:12.168Z,55.93
2018-08-25T07:32:12.479Z,56.03
2018-08-25T07:33:12.632Z,56.87
2018-08-25T07:34:12.864Z,57.06
2018-08-25T07:35:13.135Z,56.87
2018-08-25T07:36:13.354Z,57.73
2018-08-25T07:37:13.583Z,57.60
2018-08-25T07:38:13.847Z,58.09
2018-08-25T07:39:14.048Z,58.86
2018-08-25T07:40:14.288Z,60.01
2018-08-25T07:41:14.506Z,60.01
2018-08-25T07:42:14.737Z,60.78
2018-08-25T07:43:14.971Z,62.03
2018-08-25T07:44:15.200Z,62.58
2018-08-25T07:45:15.507Z,63.06
2018-08-25T07:46:15.663Z,63.15
2018-08-25T07:47:15.895Z,63.45
2018-08-25T07:48:16.129Z,65.17
2018-08-25T07:49:16.357Z,65.23
2018-08-25T07:50:16.587Z,66.10
2018-08-25T07:51:16.819Z,66.20
2018-08-25T07:52:17.051Z,67.07
2018-08-25T07:53:17.293Z,67.16
2018-08-25T07:54:17.513Z,67.64
2018-08-25T07:55:17.743Z,68.41
2018-08-25T07:56:17.973Z,67.25
2018-08-25T07:57:18.204Z,67.07
2018-08-25T07:58:18.441Z,66.87
2018-08-25T07:59:18.744Z,66.00
2018-08-25T08:00:18.916Z,66.33
2018-08-25T08:01:19.938Z,66.14
2018-08-25T08:02:19.411Z,65.94
2018-08-25T08:03:19.641Z,65.66
2018-08-25T08:04:19.873Z,66.04
2018-08-25T08:05:20.125Z,66.52
2018-08-25T08:06:20.342Z,66.14
2018-08-25T08:07:20.574Z,66.23
2018-08-25T08:08:20.801Z,66.42
2018-08-25T08:09:21.032Z,66.52
2018-08-25T08:10:21.263Z,68.06
2018-08-25T08:11:21.492Z,67.96
2018-08-25T08:12:21.812Z,68.25
2018-08-25T08:13:21.952Z,68.25
2018-08-25T08:14:22.182Z,68.44
2018-08-25T08:15:22.414Z,67.96
2018-08-25T08:16:22.648Z,67.86
2018-08-25T08:17:22.868Z,68.44
2018-08-25T08:18:23.158Z,68.83
2018-08-25T08:19:23.315Z,69.21
2018-08-25T08:20:23.556Z,69.60
2018-08-25T08:21:23.790Z,69.60
2018-08-25T08:22:24.018Z,69.02
2018-08-25T08:23:24.250Z,69.21
2018-08-25T08:24:24.480Z,69.85
2018-08-25T08:25:24.713Z,70.90
2018-08-25T08:26:24.945Z,71.39
2018-08-25T08:27:25.179Z,70.81
2018-08-25T08:28:25.411Z,70.43
2018-08-25T08:29:25.631Z,71.29
2018-08-25T08:30:25.864Z,70.62
2018-08-25T08:31:26.094Z,70.33
2018-08-25T08:32:26.957Z,70.72
2018-08-25T08:33:26.559Z,71.10
2018-08-25T08:34:26.785Z,71.29
2018-08-25T08:35:27.063Z,71.39
2018-08-25T08:36:27.250Z,72.31
2018-08-25T08:37:27.482Z,72.22
2018-08-25T08:38:27.679Z,72.12
2018-08-25T08:39:27.967Z,72.89
2018-08-25T08:40:28.164Z,72.95
2018-08-25T08:41:28.390Z,72.75
2018-08-25T08:42:28.722Z,74.01
2018-08-25T08:43:28.862Z,73.91
2018-08-25T08:44:29.069Z,74.19
2018-08-25T08:45:29.320Z,74.39
2018-08-25T08:46:29.526Z,74.87
2018-08-25T08:47:29.776Z,75.15
2018-08-25T08:48:29.988Z,75.35
2018-08-25T08:49:30.217Z,75.40
2018-08-25T08:50:30.555Z,75.02
2018-08-25T08:51:30.675Z,76.17
2018-08-25T08:52:30.907Z,75.60
2018-08-25T08:53:31.149Z,76.27
2018-08-25T08:54:31.377Z,77.13
2018-08-25T08:55:31.614Z,77.23
2018-08-25T08:56:31.855Z,76.84
2018-08-25T08:57:32.087Z,76.50
2018-08-25T08:58:32.326Z,74.68
2018-08-25T08:59:32.567Z,75.35
2018-08-25T09:00:32.817Z,75.35
2018-08-25T09:01:33.051Z,75.45
2018-08-25T09:02:33.286Z,75.25
2018-08-25T09:03:33.578Z,74.87
2018-08-25T09:04:33.757Z,74.39
2018-08-25T09:05:33.998Z,73.56
2018-08-25T09:06:34.231Z,73.75
2018-08-25T09:07:34.506Z,74.43
2018-08-25T09:08:34.750Z,74.43
2018-08-25T09:09:34.978Z,74.43
2018-08-25T09:10:35.205Z,74.43
2018-08-25T09:11:35.562Z,74.62
2018-08-25T09:12:35.663Z,74.87
2018-08-25T09:13:35.897Z,75.38
2018-08-25T09:14:36.117Z,74.52
2018-08-25T09:15:44.289Z,75.29
2018-08-25T09:16:44.404Z,74.90
2018-08-25T09:17:44.592Z,75.10
2018-08-25T09:18:36.914Z,75.48
2018-08-25T09:19:45.068Z,75.38
2018-08-25T09:20:45.378Z,75.38
2018-08-25T09:21:37.599Z,75.29
2018-08-25T09:22:45.705Z,74.52
2018-08-25T09:23:45.938Z,75.57
2018-08-25T09:24:46.256Z,75.29
2018-08-25T09:25:46.423Z,74.90
2018-08-25T09:26:38.741Z,75.00
2018-08-25T09:27:38.973Z,75.29
2018-08-25T09:28:46.993Z,74.90
2018-08-25T09:29:48.341Z,75.10
2018-08-25T09:30:39.737Z,75.00
2018-08-25T09:31:48.906Z,75.48
2018-08-25T09:32:40.175Z,75.32
2018-08-25T09:33:49.289Z,75.13
2018-08-25T09:34:40.726Z,74.50
2018-08-25T09:35:40.950Z,74.69
2018-08-25T09:36:41.295Z,74.88
2018-08-25T09:37:41.382Z,73.63
2018-08-25T09:38:41.618Z,72.77
2018-08-25T09:39:41.835Z,73.28
2018-08-25T09:40:42.116Z,73.77
2018-08-25T09:41:42.322Z,73.15
2018-08-25T09:42:42.545Z,72.67
2018-08-25T09:43:42.781Z,72.58
2018-08-25T09:44:43.009Z,73.98
2018-08-25T09:45:43.253Z,74.11
2018-08-25T09:46:43.502Z,73.35
2018-08-25T09:47:43.758Z,73.35
2018-08-25T09:48:43.995Z,73.73
2018-08-25T09:49:44.338Z,73.63
2018-08-25T09:50:44.688Z,73.73
2018-08-25T09:51:44.671Z,73.73
2018-08-25T09:52:45.631Z,73.83
2018-08-25T09:53:45.107Z,75.27
2018-08-25T09:54:45.330Z,75.56
2018-08-25T09:55:45.581Z,75.07
2018-08-25T09:56:45.813Z,75.07
2018-08-25T09:57:46.041Z,75.46
2018-08-25T09:58:46.282Z,76.42
2018-08-25T09:59:46.505Z,75.37
2018-08-25T10:00:46.731Z,75.37
2018-08-25T10:01:46.984Z,74.98
2018-08-25T10:02:47.219Z,74.88
2018-08-25T10:03:47.453Z,74.30
2018-08-25T10:04:47.685Z,73.54
2018-08-25T10:05:47.909Z,74.98
2018-08-25T10:06:48.140Z,73.77
2018-08-25T10:07:48.373Z,74.02
2018-08-25T10:08:48.627Z,73.47
2018-08-25T10:09:48.992Z,73.09
2018-08-25T10:10:49.081Z,73.00
2018-08-25T10:11:59.034Z,73.32
2018-08-25T10:12:57.455Z,73.03
2018-08-25T10:14:03.723Z,72.26
2018-08-25T10:14:58.996Z,71.69
2018-08-25T10:15:50.196Z,72.26
2018-08-25T10:16:50.542Z,71.59
2018-08-25T10:17:51.224Z,70.53
2018-08-25T10:18:50.992Z,70.34
2018-08-25T10:19:51.096Z,70.28
2018-08-25T10:20:51.346Z,70.09
2018-08-25T10:21:51.697Z,70.66
2018-08-25T10:22:52.737Z,70.09
2018-08-25T10:23:52.052Z,70.02
2018-08-25T10:24:52.286Z,69.73
2018-08-25T10:25:52.518Z,69.45
2018-08-25T10:26:52.749Z,69.77
2018-08-25T10:27:53.020Z,68.99
2018-08-25T10:28:53.393Z,68.42
2018-08-25T10:29:53.437Z,68.42
2018-08-25T10:30:53.667Z,68.32
2018-08-25T10:31:53.900Z,68.55
2018-08-25T10:32:54.130Z,69.03
2018-08-25T10:33:54.366Z,67.97
2018-08-25T10:34:54.595Z,66.91
2018-08-25T10:35:54.826Z,65.43
2018-08-25T10:36:55.063Z,63.63
2018-08-25T10:37:55.304Z,64.50
2018-08-25T10:38:55.540Z,64.89
2018-08-25T10:39:55.768Z,65.63
2018-08-25T10:40:55.999Z,65.56
2018-08-25T10:41:56.333Z,65.17
2018-08-25T10:42:56.472Z,63.63
2018-08-25T10:43:56.704Z,63.92
2018-08-25T10:44:56.940Z,63.82
2018-08-25T10:45:57.191Z,63.54
2018-08-25T10:46:57.430Z,63.06
2018-08-25T10:47:57.717Z,62.38
2018-08-25T10:48:57.911Z,62.22
2018-08-25T10:49:58.151Z,62.51
2018-08-25T10:50:58.383Z,60.96
2018-08-25T10:51:58.619Z,62.22
2018-08-25T10:53:08.924Z,60.48
2018-08-25T10:54:08.452Z,59.80
2018-08-25T10:55:02.239Z,59.06
2018-08-25T10:55:59.551Z,59.25
2018-08-25T10:57:08.694Z,59.93
2018-08-25T10:58:00.052Z,59.71
2018-08-25T10:59:00.296Z,59.80
2018-08-25T11:00:09.063Z,59.23
2018-08-25T11:01:00.914Z,59.06
2018-08-25T11:02:00.945Z,58.19
2018-08-25T11:03:01.225Z,57.32
2018-08-25T11:04:01.472Z,56.65
2018-08-25T11:05:01.699Z,57.14
2018-08-25T11:06:01.936Z,57.39
2018-08-25T11:07:02.796Z,57.10
2018-08-25T11:09:34.531Z,57.42
2018-08-25T11:10:34.743Z,56.65
2018-08-25T11:11:35.114Z,55.98
2018-08-25T11:12:35.206Z,56.26
2018-08-25T11:13:35.436Z,56.14
2018-08-25T11:14:35.672Z,55.10
2018-08-25T11:15:35.901Z,55.10
2018-08-25T11:16:36.143Z,54.91
2018-08-25T11:17:36.386Z,55.10
2018-08-25T11:18:36.608Z,53.92
2018-08-25T11:19:36.838Z,55.56
2018-08-25T11:20:37.067Z,55.44
2018-08-25T11:21:37.297Z,55.66
2018-08-25T11:22:37.533Z,56.14
2018-08-25T11:23:37.825Z,55.73
2018-08-25T11:24:37.996Z,55.76
2018-08-25T11:25:38.230Z,55.18
2018-08-25T11:26:38.464Z,55.46
2018-08-25T11:27:38.698Z,55.27
2018-08-25T11:28:38.926Z,55.15
2018-08-25T11:29:47.563Z,55.36
2018-08-25T11:30:39.460Z,55.94
2018-08-25T11:31:39.711Z,55.94
2018-08-25T11:32:39.877Z,54.72
2018-08-25T11:33:40.231Z,54.53
2018-08-25T11:34:40.338Z,55.10
2018-08-25T11:35:40.712Z,54.62
2018-08-25T11:36:40.854Z,54.62
2018-08-25T11:37:41.301Z,53.34
2018-08-25T11:38:41.391Z,53.05
2018-08-25T11:39:41.636Z,52.86
2018-08-25T11:40:41.894Z,54.11
2018-08-25T11:41:42.206Z,53.89
2018-08-25T11:42:42.312Z,54.66
2018-08-25T11:43:42.542Z,54.18
2018-08-25T11:44:42.771Z,53.99
2018-08-25T11:45:43.010Z,54.50
2018-08-25T11:46:43.246Z,53.80
2018-08-25T11:47:43.475Z,53.15
2018-08-25T11:48:43.706Z,53.15
2018-08-25T11:49:43.940Z,52.93
2018-08-25T11:50:44.179Z,53.25
2018-08-25T11:51:44.418Z,52.83
2018-08-25T11:52:44.635Z,53.25
2018-08-25T11:53:44.865Z,52.57
2018-08-25T11:54:45.109Z,52.57
2018-08-25T11:55:45.339Z,52.37
2018-08-25T11:56:45.573Z,52.19
2018-08-25T11:57:45.804Z,51.22
2018-08-25T11:58:46.053Z,50.54
2018-08-25T11:59:46.358Z,50.35
2018-08-25T12:00:46.522Z,51.61
2018-08-25T12:01:46.758Z,51.89
2018-08-25T12:02:46.997Z,52.35
2018-08-25T12:03:47.230Z,52.45
2018-08-25T12:04:47.465Z,52.47
2018-08-25T12:05:47.706Z,51.51
2018-08-25T12:06:47.981Z,50.84
2018-08-25T12:07:48.252Z,50.84
2018-08-25T12:08:48.494Z,50.64
2018-08-25T12:09:48.812Z,50.45
2018-08-25T12:10:49.019Z,50.52
2018-08-25T12:11:49.137Z,50.32
2018-08-25T12:12:49.376Z,49.65
2018-08-25T12:13:49.626Z,50.30
2018-08-25T12:14:49.923Z,50.59
2018-08-25T12:15:50.088Z,50.01
2018-08-25T12:16:50.323Z,50.88
2018-08-25T12:17:50.561Z,52.04
2018-08-25T12:18:50.877Z,51.84
2018-08-25T12:19:51.076Z,52.04
2018-08-25T12:20:51.251Z,52.33
2018-08-25T12:21:51.364Z,52.61
2018-08-25T12:22:51.600Z,52.13
2018-08-25T12:23:51.905Z,52.13
2018-08-25T12:24:52.031Z,50.59
2018-08-25T12:25:52.358Z,50.21
2018-08-25T12:26:52.470Z,50.30
2018-08-25T12:27:52.696Z,49.24
2018-08-25T12:28:52.935Z,49.24
2018-08-25T12:29:53.237Z,50.30
2018-08-25T12:30:53.365Z,50.01
2018-08-25T12:31:53.600Z,50.49
2018-08-25T12:32:53.832Z,50.21
2018-08-25T12:33:54.102Z,50.49
2018-08-25T12:34:54.338Z,50.40
2018-08-25T12:35:54.579Z,50.09
2018-08-25T12:36:54.824Z,50.76
2018-08-25T12:37:55.187Z,50.95
2018-08-25T12:38:55.334Z,50.95
2018-08-25T12:39:55.568Z,50.85
2018-08-25T12:40:55.795Z,51.21
2018-08-25T12:41:56.031Z,51.50
2018-08-25T12:42:56.294Z,50.73
2018-08-25T12:43:56.549Z,51.21
2018-08-25T12:44:56.795Z,51.19
2018-08-25T12:45:57.002Z,51.31
2018-08-25T12:46:57.257Z,52.08
2018-08-25T12:47:57.480Z,52.27
2018-08-25T12:48:57.718Z,52.37
2018-08-25T12:49:57.944Z,51.41
2018-08-25T12:50:58.182Z,52.06
2018-08-25T12:51:58.503Z,51.21
2018-08-25T12:52:58.610Z,50.93
2018-08-25T12:53:58.868Z,50.83
2018-08-25T12:54:59.105Z,51.21
2018-08-25T12:55:59.338Z,51.41
2018-08-25T12:56:59.570Z,51.50